Time;durP1;ratioP1;P1;durP2;ratioP2;P2;SDS_P1;SDS_P2;PMS_P1;PMS_P2;Temp;Humidity;BMP_temperature;BMP_pressure;BME280_temperature;BME280_humidity;BME280_pressure;Samples;Min_cycle;Max_cycle;Signal;HPM_P1;HPM_P2
2021/01/01 00:00:20;;;;;;;27.67;18.10;;;;;;;4.48;71.26;100960.84;1789668;78;20946;-74
2021/01/01 00:02:50;;;;;;;23.38;17.87;;;;;;;4.42;71.31;100967.50;1757686;80;20934;-76
2021/01/01 00:05:18;;;;;;;18.92;13.80;;;;;;;4.37;71.51;100962.90;1788541;78;21508;-76
2021/01/01 00:07:46;;;;;;;21.80;15.38;;;;;;;4.36;71.38;100966.41;1757513;80;20966;-76
2021/01/01 00:10:14;;;;;;;24.05;18.02;;;;;;;4.34;71.57;100966.44;1788600;78;22080;-76
2021/01/01 00:12:42;;;;;;;25.12;18.62;;;;;;;4.34;71.61;100969.03;1757098;80;21022;-75
2021/01/01 00:15:12;;;;;;;22.10;16.15;;;;;;;4.35;71.57;100971.17;1788477;78;21333;-76
2021/01/01 00:17:41;;;;;;;21.73;14.93;;;;;;;4.34;71.43;100970.33;1757183;80;21045;-76
2021/01/01 00:20:10;;;;;;;22.10;16.12;;;;;;;4.34;71.40;100964.30;1788508;78;21385;-76
2021/01/01 00:22:39;;;;;;;21.95;15.70;;;;;;;4.35;71.40;100962.94;1757216;80;21581;-76
2021/01/01 00:25:08;;;;;;;22.35;15.40;;;;;;;4.34;71.36;100959.95;1788399;78;21095;-76
2021/01/01 00:27:36;;;;;;;20.72;15.35;;;;;;;4.32;71.30;100960.44;1757220;80;20994;-76
2021/01/01 00:30:07;;;;;;;19.67;14.43;;;;;;;4.28;71.24;100959.27;1788425;78;20955;-75
2021/01/01 00:32:35;;;;;;;22.62;13.98;;;;;;;4.23;71.30;100954.22;1757276;80;21006;-75
2021/01/01 00:35:04;;;;;;;17.48;12.65;;;;;;;4.21;71.31;100952.56;1788410;78;21271;-75
2021/01/01 00:37:40;;;;;;;21.00;14.63;;;;;;;4.16;71.38;100951.39;1757332;80;21125;-76
2021/01/01 00:40:08;;;;;;;20.57;13.58;;;;;;;4.12;71.63;100950.62;1788437;78;20939;-75
2021/01/01 00:42:37;;;;;;;22.30;15.30;;;;;;;4.13;71.62;100947.11;1765302;79;20974;-75
2021/01/01 00:45:06;;;;;;;23.87;15.98;;;;;;;4.13;71.61;100950.16;1801910;78;21408;-75
2021/01/01 00:47:34;;;;;;;22.52;15.18;;;;;;;4.13;71.70;100948.41;1770171;79;21179;-74
2021/01/01 00:50:04;;;;;;;22.98;16.02;;;;;;;4.11;71.59;100945.03;1829892;78;20990;-80
2021/01/01 00:52:36;;;;;;;20.92;14.38;;;;;;;4.07;71.70;100949.03;1770547;79;20997;-80
2021/01/01 00:55:07;;;;;;;25.43;15.15;;;;;;;4.02;71.75;100946.56;1802424;78;21411;-74
2021/01/01 00:57:35;;;;;;;19.27;12.90;;;;;;;4.03;71.84;100947.44;1772778;79;20990;-75
2021/01/01 01:00:08;;;;;;;15.15;11.10;;;;;;;4.06;71.81;100944.30;1803018;78;21450;-77
2021/01/01 01:02:36;;;;;;;16.35;12.28;;;;;;;4.06;71.67;100942.16;1770150;79;20954;-75
2021/01/01 01:05:07;;;;;;;17.82;10.75;;;;;;;4.03;71.73;100943.09;1801971;78;21573;-75
2021/01/01 01:07:35;;;;;;;19.07;13.25;;;;;;;4.02;71.73;100943.13;1770116;79;21029;-74
2021/01/01 01:10:06;;;;;;;18.32;13.28;;;;;;;4.01;71.77;100939.69;1801774;78;21018;-76
2021/01/01 01:12:34;;;;;;;19.57;13.93;;;;;;;4.02;71.74;100941.38;1770138;79;21170;-76
2021/01/01 01:15:02;;;;;;;16.80;12.58;;;;;;;4.01;71.77;100934.50;1801675;78;20974;-76
2021/01/01 01:17:30;;;;;;;17.42;13.43;;;;;;;4.01;71.73;100932.36;1770139;79;20946;-76
2021/01/01 01:19:58;;;;;;;16.15;10.72;;;;;;;4.02;71.70;100930.16;1801621;78;20929;-76
2021/01/01 01:22:26;;;;;;;17.32;12.30;;;;;;;4.05;71.57;100931.38;1770128;79;20950;-75
2021/01/01 01:24:54;;;;;;;18.50;13.28;;;;;;;4.04;71.56;100921.42;1801805;78;21144;-73
2021/01/01 01:27:21;;;;;;;21.12;13.10;;;;;;;4.06;71.64;100923.53;1769970;79;21084;-75
2021/01/01 01:29:50;;;;;;;17.92;12.95;;;;;;;4.08;71.61;100923.05;1801986;78;20946;-76
2021/01/01 01:32:19;;;;;;;15.15;11.48;;;;;;;4.11;71.49;100922.98;1770181;79;21391;-75
2021/01/01 01:34:47;;;;;;;16.20;12.65;;;;;;;4.12;71.15;100926.41;1801737;78;20910;-74
2021/01/01 01:37:15;;;;;;;15.45;11.65;;;;;;;4.06;71.26;100920.94;1770100;79;21029;-76
2021/01/01 01:39:43;;;;;;;15.18;10.88;;;;;;;4.03;71.32;100918.44;1801855;78;21563;-74
2021/01/01 01:42:11;;;;;;;16.55;11.90;;;;;;;4.01;71.33;100916.33;1765524;79;21025;-75
2021/01/01 01:44:41;;;;;;;15.48;10.43;;;;;;;4.00;71.39;100914.61;1820324;78;21025;-76
2021/01/01 01:49:22;;;;;;;12.30;9.93;;;;;;;4.03;71.61;100913.25;1844899;76;22497;-75
2021/01/01 01:51:51;;;;;;;13.83;10.60;;;;;;;3.96;71.69;100909.14;1755648;80;20961;-74
2021/01/01 01:54:19;;;;;;;12.95;10.30;;;;;;;3.93;71.82;100911.80;1786758;79;21170;-75
2021/01/01 01:56:47;;;;;;;20.40;11.35;;;;;;;3.94;71.76;100915.66;1786714;78;21048;-75
2021/01/01 01:59:18;;;;;;;14.63;10.72;;;;;;;3.95;71.71;100908.71;1786680;79;20930;-74
2021/01/01 02:01:46;;;;;;;17.52;12.03;;;;;;;3.93;71.76;100913.09;1786701;79;21355;-74
2021/01/01 02:04:14;;;;;;;14.40;11.33;;;;;;;3.92;71.78;100917.44;1786433;79;20907;-74
2021/01/01 02:06:43;;;;;;;14.58;11.22;;;;;;;3.89;71.85;100913.64;1786636;79;21166;-74
2021/01/01 02:09:12;;;;;;;14.93;10.45;;;;;;;3.89;71.96;100908.88;1787154;79;21021;-74
2021/01/01 02:11:41;;;;;;;15.05;11.43;;;;;;;3.91;71.83;100906.67;1784047;79;21579;-74
2021/01/01 02:14:09;;;;;;;13.03;9.48;;;;;;;3.94;71.83;100909.62;1783781;79;21030;-73
2021/01/01 02:16:38;;;;;;;14.68;10.03;;;;;;;3.98;71.84;100907.34;1783820;79;20927;-74
2021/01/01 02:19:05;;;;;;;13.72;10.43;;;;;;;3.99;71.84;100906.44;1783989;79;20981;-74
2021/01/01 02:21:34;;;;;;;13.48;11.00;;;;;;;3.99;71.76;100905.59;1783857;79;20958;-74
2021/01/01 02:24:02;;;;;;;16.82;11.57;;;;;;;3.99;71.76;100899.11;1783878;79;20986;-75
2021/01/01 02:26:31;;;;;;;14.75;11.88;;;;;;;3.99;71.73;100901.25;1783860;79;20962;-75
2021/01/01 02:28:59;;;;;;;19.35;12.07;;;;;;;4.00;71.71;100900.34;1784024;79;21010;-74
2021/01/01 02:31:27;;;;;;;19.73;13.60;;;;;;;4.00;71.74;100896.91;1783831;78;21166;-74
2021/01/01 02:33:55;;;;;;;18.85;13.98;;;;;;;3.99;71.73;100893.47;1783711;79;20951;-74
2021/01/01 02:36:24;;;;;;;21.95;14.63;;;;;;;3.99;71.84;100896.52;1783917;79;20954;-74
2021/01/01 02:38:52;;;;;;;20.77;13.78;;;;;;;3.99;71.96;100895.22;1783828;79;21536;-75
2021/01/01 02:41:20;;;;;;;21.07;14.35;;;;;;;4.03;71.90;100896.84;1783833;79;20991;-74
2021/01/01 02:43:48;;;;;;;20.10;14.58;;;;;;;4.04;71.96;100894.18;1784052;79;21934;-74
2021/01/01 02:46:16;;;;;;;23.12;14.40;;;;;;;4.05;72.13;100901.09;1784008;79;21401;-73
2021/01/01 02:48:44;;;;;;;19.40;13.15;;;;;;;4.08;72.20;100900.98;1783934;79;20954;-73
2021/01/01 02:51:12;;;;;;;21.70;14.68;;;;;;;4.12;72.06;100890.92;1783876;79;21002;-74
2021/01/01 02:53:40;;;;;;;21.50;15.05;;;;;;;4.18;71.96;100892.51;1784092;79;21514;-74
2021/01/01 02:56:08;;;;;;;27.52;15.48;;;;;;;4.20;71.75;100888.55;1784006;79;22174;-75
2021/01/01 02:58:36;;;;;;;26.68;16.55;;;;;;;4.16;71.63;100889.10;1783836;79;20974;-74
2021/01/01 03:01:04;;;;;;;24.70;15.78;;;;;;;4.09;71.69;100896.22;1783330;79;21018;-73
2021/01/01 03:03:32;;;;;;;24.00;15.58;;;;;;;4.06;71.77;100896.73;1783294;79;21022;-73
2021/01/01 03:05:59;;;;;;;31.90;16.82;;;;;;;4.02;71.80;100894.67;1813134;78;21436;-74
2021/01/01 03:08:27;;;;;;;20.55;14.83;;;;;;;4.01;71.90;100893.44;1783282;79;21984;-74
2021/01/01 03:10:55;;;;;;;24.32;14.58;;;;;;;4.01;72.05;100890.84;1783270;79;20974;-74
2021/01/01 03:13:23;;;;;;;22.87;13.78;;;;;;;4.01;72.09;100892.98;1783393;79;21377;-74
2021/01/01 03:15:50;;;;;;;22.93;14.93;;;;;;;4.03;72.08;100892.95;1783262;79;20975;-74
2021/01/01 03:18:19;;;;;;;25.62;16.40;;;;;;;4.06;72.00;100894.98;1783301;79;20986;-74
2021/01/01 03:20:47;;;;;;;25.55;14.83;;;;;;;4.11;71.96;100889.66;1783317;79;21169;-74
2021/01/01 03:23:15;;;;;;;22.67;14.70;;;;;;;4.14;71.73;100890.89;1783337;79;21073;-74
2021/01/01 03:25:43;;;;;;;24.12;14.90;;;;;;;4.13;71.72;100890.02;1783368;79;20931;-73
2021/01/01 03:28:13;;;;;;;25.52;17.27;;;;;;;4.11;71.65;100887.06;1783288;79;21014;-74
2021/01/01 03:30:40;;;;;;;21.90;14.28;;;;;;;4.07;71.58;100888.92;1783228;79;21002;-74
2021/01/01 03:33:08;;;;;;;22.32;14.47;;;;;;;4.06;71.62;100888.50;1783275;79;21163;-74
2021/01/01 03:35:36;;;;;;;21.85;14.35;;;;;;;4.08;71.73;100891.91;1783314;79;21408;-75
2021/01/01 03:38:04;;;;;;;20.80;14.90;;;;;;;4.10;71.66;100886.68;1783494;79;20950;-73
2021/01/01 03:40:33;;;;;;;21.77;14.33;;;;;;;4.09;71.55;100885.84;1783351;79;20931;-76
2021/01/01 03:43:01;;;;;;;17.65;12.47;;;;;;;4.08;71.44;100891.06;1783261;79;20998;-74
2021/01/01 03:45:29;;;;;;;23.73;13.83;;;;;;;4.02;71.35;100889.48;1783250;79;21104;-74
2021/01/01 03:47:57;;;;;;;19.92;13.72;;;;;;;3.97;71.53;100883.58;1782543;79;21508;-75
2021/01/01 03:50:24;;;;;;;18.52;14.20;;;;;;;3.93;71.62;100884.55;1780753;79;21129;-75
2021/01/01 03:52:52;;;;;;;19.00;13.25;;;;;;;3.88;71.62;100881.25;1780408;79;21088;-75
2021/01/01 03:55:21;;;;;;;21.90;15.13;;;;;;;3.88;71.65;100876.05;1780467;79;20974;-74
2021/01/01 03:57:48;;;;;;;21.33;14.40;;;;;;;3.86;71.79;100879.14;1780313;79;21171;-73
2021/01/01 04:00:17;;;;;;;20.85;14.28;;;;;;;3.86;71.82;100871.36;1780430;79;20978;-74
2021/01/01 04:02:46;;;;;;;21.73;13.38;;;;;;;3.86;71.65;100876.55;1780441;79;21385;-73
2021/01/01 04:05:14;;;;;;;19.48;12.07;;;;;;;3.85;71.60;100878.30;1780267;79;20939;-73
2021/01/01 04:07:42;;;;;;;13.30;9.30;;;;;;;3.87;71.25;100883.45;1780382;79;21121;-74
2021/01/01 04:10:10;;;;;;;12.18;9.03;;;;;;;3.89;70.90;100885.53;1767234;79;21006;-72
2021/01/01 04:12:39;;;;;;;13.68;9.20;;;;;;;3.89;70.45;100890.72;1780428;79;21034;-74
2021/01/01 04:15:09;;;;;;;13.10;9.68;;;;;;;3.87;70.18;100890.78;1780578;79;21374;-74
2021/01/01 04:17:38;;;;;;;13.45;9.25;;;;;;;3.82;70.14;100901.71;1767196;79;21635;-74
2021/01/01 04:20:07;;;;;;;11.43;7.12;;;;;;;3.78;70.20;100900.12;1780458;79;20935;-73
2021/01/01 04:22:35;;;;;;;13.98;9.88;;;;;;;3.77;70.22;100901.45;1780407;79;22243;-73
2021/01/01 04:25:06;;;;;;;8.80;7.12;;;;;;;3.74;70.22;100894.61;1780352;79;21307;-73
2021/01/01 04:27:33;;;;;;;11.00;8.45;;;;;;;3.70;70.32;100892.98;1767130;79;20947;-74
2021/01/01 04:30:02;;;;;;;15.40;10.03;;;;;;;3.67;70.54;100906.89;1780530;79;21010;-75
2021/01/01 04:32:31;;;;;;;14.63;9.85;;;;;;;3.66;70.71;100906.92;1810187;79;20931;-72
2021/01/01 04:34:59;;;;;;;15.08;11.00;;;;;;;3.66;70.79;100911.66;1782477;79;21019;-73
2021/01/01 04:37:27;;;;;;;19.55;11.53;;;;;;;3.64;70.98;100907.41;1783762;78;20962;-74
2021/01/01 04:39:55;;;;;;;18.57;11.75;;;;;;;3.62;71.10;100915.22;1780605;79;20974;-75
2021/01/01 04:42:23;;;;;;;15.10;10.90;;;;;;;3.62;71.16;100913.08;1780560;79;20923;-75
2021/01/01 04:44:51;;;;;;;17.48;11.75;;;;;;;3.59;71.15;100907.98;1780423;79;20982;-74
2021/01/01 04:47:21;;;;;;;18.30;12.20;;;;;;;3.54;71.26;100900.33;1780599;79;22142;-74
2021/01/01 04:49:50;;;;;;;17.40;11.95;;;;;;;3.50;71.35;100897.41;1771841;80;20987;-74
2021/01/01 04:52:18;;;;;;;16.82;11.40;;;;;;;3.48;71.37;100897.89;1814194;77;21431;-72
2021/01/01 04:54:46;;;;;;;15.28;10.13;;;;;;;3.46;71.47;100899.66;1814132;77;21368;-74
2021/01/01 04:57:15;;;;;;;16.65;11.38;;;;;;;3.43;71.59;100902.35;1763215;77;20938;-74
2021/01/01 04:59:43;;;;;;;17.15;11.28;;;;;;;3.40;71.64;100901.11;1814066;77;21106;-74
2021/01/01 05:02:11;;;;;;;17.07;11.33;;;;;;;3.37;71.65;100889.54;1814149;77;20998;-74
2021/01/01 05:04:39;;;;;;;16.73;11.75;;;;;;;3.31;71.76;100894.00;1814224;77;21038;-73
2021/01/01 05:07:07;;;;;;;14.47;10.80;;;;;;;3.27;71.86;100884.59;1814114;77;20915;-72
2021/01/01 05:09:35;;;;;;;18.07;9.98;;;;;;;3.25;71.87;100890.72;1814158;77;20923;-74
2021/01/01 05:12:08;;;;;;;17.48;11.30;;;;;;;3.18;72.01;100896.50;1786428;77;21390;-75
2021/01/01 05:14:38;;;;;;;16.52;11.08;;;;;;;3.16;72.08;100899.57;1814367;77;20955;-74
2021/01/01 05:17:05;;;;;;;13.35;10.43;;;;;;;3.16;72.12;100911.65;1814071;77;20943;-76
2021/01/01 05:19:43;;;;;;;15.58;10.65;;;;;;;3.14;72.29;100915.59;1814106;77;20891;-74
2021/01/01 05:22:12;;;;;;;13.80;9.53;;;;;;;3.13;72.38;100915.17;1844723;77;20970;-74
2021/01/01 05:24:48;;;;;;;18.73;11.20;;;;;;;3.12;72.49;100912.19;1812793;77;21172;-75
2021/01/01 05:27:17;;;;;;;18.30;11.80;;;;;;;3.14;72.53;100912.16;1814104;77;20956;-74
2021/01/01 05:29:57;;;;;;;19.42;11.70;;;;;;;3.12;72.43;100910.89;1814186;77;20943;-73
2021/01/01 05:32:28;;;;;;;20.95;11.83;;;;;;;3.09;72.44;100912.24;1814204;77;20935;-74
2021/01/01 05:34:59;;;;;;;17.27;11.40;;;;;;;3.06;72.64;100921.39;1814333;77;20946;-74
2021/01/01 05:37:31;;;;;;;19.20;10.72;;;;;;;3.03;72.62;100915.84;1814083;77;21110;-75
2021/01/01 05:40:08;;;;;;;17.45;10.58;;;;;;;2.99;72.75;100905.15;1813985;77;21021;-74
2021/01/01 05:42:36;;;;;;;15.72;11.30;;;;;;;3.01;72.73;100903.83;1814068;77;20907;-74
2021/01/01 05:45:18;;;;;;;13.32;9.65;;;;;;;2.98;72.82;100895.69;1814103;77;20951;-74
2021/01/01 05:48:06;;;;;;;14.13;9.13;;;;;;;2.98;72.83;100889.62;1812708;77;20939;-74
2021/01/01 05:50:35;;;;;;;22.93;11.60;;;;;;;2.97;72.84;100885.35;1821002;77;20996;-76
2021/01/01 05:53:13;;;;;;;14.73;10.70;;;;;;;3.01;72.81;100867.56;1822283;77;21413;-74
2021/01/01 05:55:41;;;;;;;17.10;11.00;;;;;;;3.04;72.75;100880.42;1822190;77;21033;-74
2021/01/01 05:58:22;;;;;;;15.18;10.00;;;;;;;3.07;72.56;100880.37;1822429;77;21006;-74
2021/01/01 06:00:56;;;;;;;14.95;9.90;;;;;;;3.08;72.58;100877.72;1822261;77;20950;-75
2021/01/01 06:03:28;;;;;;;14.70;11.38;;;;;;;3.09;72.59;100868.20;1821941;77;21172;-75
2021/01/01 06:05:57;;;;;;;16.32;10.55;;;;;;;3.06;72.62;100877.35;1822231;77;21579;-75
2021/01/01 06:08:28;;;;;;;14.55;9.78;;;;;;;3.03;72.65;100851.08;1822271;77;20939;-74
2021/01/01 06:11:05;;;;;;;16.80;10.25;;;;;;;3.00;72.75;100867.13;1822096;77;20938;-73
2021/01/01 06:13:35;;;;;;;15.18;10.30;;;;;;;2.98;72.90;100869.78;1822125;77;20938;-73
2021/01/01 06:16:05;;;;;;;14.20;9.75;;;;;;;2.98;72.99;100864.60;1822315;77;21894;-73
2021/01/01 06:18:34;;;;;;;15.10;10.15;;;;;;;3.00;72.94;100869.72;1820662;77;21026;-74
2021/01/01 06:21:07;;;;;;;20.02;10.95;;;;;;;2.98;72.91;100862.02;1822149;77;20970;-74
2021/01/01 06:23:38;;;;;;;16.60;12.60;;;;;;;2.99;72.90;100863.70;1822238;77;20899;-74
2021/01/01 06:26:08;;;;;;;17.60;11.18;;;;;;;2.98;72.77;100862.43;1822169;77;20946;-74
2021/01/01 06:28:38;;;;;;;16.40;10.53;;;;;;;2.94;72.76;100850.02;1822279;77;21182;-75
2021/01/01 06:31:06;;;;;;;16.27;10.00;;;;;;;2.93;72.84;100848.75;1822180;77;21049;-75
2021/01/01 06:33:34;;;;;;;15.20;10.55;;;;;;;2.94;72.73;100838.36;1822188;77;21479;-74
2021/01/01 06:36:02;;;;;;;14.93;9.58;;;;;;;2.93;72.69;100828.88;1822308;77;21414;-74
2021/01/01 06:38:41;;;;;;;13.60;8.70;;;;;;;2.93;72.57;100821.10;1821169;77;21026;-74
2021/01/01 06:41:21;;;;;;;11.80;8.73;;;;;;;2.94;72.54;100818.09;1821228;77;21171;-75
2021/01/01 06:43:55;;;;;;;13.25;9.48;;;;;;;2.94;72.51;100820.23;1811336;77;21084;-77
2021/01/01 06:46:38;;;;;;;14.45;10.40;;;;;;;2.95;72.48;100810.27;1821064;77;21598;-74
2021/01/01 06:49:08;;;;;;;14.47;10.40;;;;;;;2.98;72.49;100806.73;1822399;77;21522;-73
2021/01/01 06:51:37;;;;;;;13.98;9.93;;;;;;;2.97;72.52;100811.08;1822393;77;20942;-74
2021/01/01 06:54:15;;;;;;;19.40;11.08;;;;;;;2.99;72.55;100805.86;1820930;76;22177;-74
2021/01/01 06:56:43;;;;;;;13.10;9.23;;;;;;;3.02;72.56;100812.25;1822361;77;21520;-74
2021/01/01 06:59:24;;;;;;;14.85;8.48;;;;;;;3.07;72.67;100809.12;1822361;77;20938;-74
2021/01/01 07:01:58;;;;;;;16.00;11.50;;;;;;;3.11;72.68;100811.59;1824357;77;21337;-75
2021/01/01 07:04:26;;;;;;;18.07;12.00;;;;;;;3.15;72.74;100819.27;1770524;77;20911;-74
2021/01/01 07:06:53;;;;;;;18.02;12.40;;;;;;;3.17;72.72;100819.63;1853892;76;21807;-75
2021/01/01 07:09:27;;;;;;;22.30;15.23;;;;;;;3.20;72.79;100823.45;1822246;77;21001;-74
2021/01/01 07:11:55;;;;;;;18.37;12.40;;;;;;;3.24;72.83;100839.75;1820221;77;20918;-73
2021/01/01 07:14:23;;;;;;;18.12;12.93;;;;;;;3.27;72.83;100859.98;1822154;77;20942;-73
2021/01/01 07:16:54;;;;;;;16.50;11.18;;;;;;;3.30;72.85;100875.89;1770171;77;20966;-73
2021/01/01 07:19:22;;;;;;;18.27;11.75;;;;;;;3.34;72.88;100863.26;1796529;77;21233;-73
2021/01/01 07:21:50;;;;;;;17.25;12.78;;;;;;;3.35;72.92;100858.47;1822035;77;21470;-74
2021/01/01 07:24:18;;;;;;;17.95;13.05;;;;;;;3.36;73.00;100867.96;1822867;77;20938;-75
2021/01/01 07:26:46;;;;;;;19.98;13.60;;;;;;;3.37;73.13;100886.50;1822460;77;22493;-75
2021/01/01 07:29:13;;;;;;;21.55;13.88;;;;;;;3.41;73.16;100870.43;1822335;77;21487;-73
2021/01/01 07:31:46;;;;;;;22.05;14.65;;;;;;;3.45;73.15;100876.78;1822289;77;21229;-76
2021/01/01 07:34:14;;;;;;;23.42;15.30;;;;;;;3.47;73.09;100901.39;1822263;77;20954;-75
2021/01/01 07:36:41;;;;;;;20.70;14.95;;;;;;;3.47;73.08;100884.08;1822134;77;20993;-74
2021/01/01 07:39:09;;;;;;;21.68;14.63;;;;;;;3.48;73.06;100897.44;1822123;77;21022;-75
2021/01/01 07:41:37;;;;;;;21.80;13.90;;;;;;;3.50;73.09;100903.43;1822262;77;20930;-75
2021/01/01 07:44:05;;;;;;;22.50;15.10;;;;;;;3.53;73.15;100896.89;1822287;77;21146;-75
2021/01/01 07:46:33;;;;;;;23.12;16.75;;;;;;;3.59;73.13;100884.19;1822112;77;20954;-75
2021/01/01 07:49:01;;;;;;;23.20;16.05;;;;;;;3.62;72.99;100876.77;1822220;77;20957;-76
2021/01/01 07:51:30;;;;;;;27.50;17.25;;;;;;;3.64;72.91;100870.64;1822167;77;21029;-76
2021/01/01 07:54:01;;;;;;;27.05;17.57;;;;;;;3.66;72.94;100872.75;1823313;77;20934;-75
2021/01/01 07:56:30;;;;;;;25.65;16.87;;;;;;;3.69;72.86;100880.47;1822218;77;21943;-75
2021/01/01 07:58:58;;;;;;;23.65;16.97;;;;;;;3.78;72.80;100878.49;1822140;77;20946;-76
2021/01/01 08:01:26;;;;;;;21.57;14.95;;;;;;;3.86;72.58;100880.44;1795958;77;21484;-76
2021/01/01 08:03:54;;;;;;;25.82;17.15;;;;;;;3.99;72.35;100883.55;1822388;77;20950;-75
2021/01/01 08:06:22;;;;;;;22.42;15.43;;;;;;;4.10;72.12;100890.57;1822329;77;20998;-74
2021/01/01 08:08:50;;;;;;;23.60;15.93;;;;;;;4.21;72.10;100872.09;1822457;77;21112;-76
2021/01/01 08:11:19;;;;;;;30.48;19.80;;;;;;;4.39;71.64;100866.34;1822798;77;21606;-76
2021/01/01 08:13:47;;;;;;;29.42;19.15;;;;;;;4.55;71.06;100858.47;1822790;77;20954;-75
2021/01/01 08:16:16;;;;;;;32.33;20.02;;;;;;;4.67;70.69;100871.55;1799298;77;20942;-74
2021/01/01 08:18:44;;;;;;;33.02;20.82;;;;;;;4.80;70.56;100865.94;1822488;77;21083;-76
2021/01/01 08:21:12;;;;;;;31.07;18.87;;;;;;;4.92;70.08;100882.00;1822677;77;22150;-75
2021/01/01 08:23:58;;;;;;;23.30;16.10;;;;;;;5.05;69.81;100877.71;1821821;77;20969;-75
2021/01/01 08:26:27;;;;;;;28.35;18.57;;;;;;;5.15;69.22;100887.73;1822381;77;20938;-74
2021/01/01 08:28:55;;;;;;;24.23;17.65;;;;;;;5.22;69.11;100874.53;1822047;77;20942;-74
2021/01/01 08:31:23;;;;;;;26.00;18.20;;;;;;;5.24;68.63;100877.47;1822311;77;21497;-75
2021/01/01 08:33:52;;;;;;;25.90;19.35;;;;;;;5.18;68.79;100877.25;1796099;77;22626;-75
2021/01/01 08:36:33;;;;;;;28.73;20.08;;;;;;;5.13;68.84;100884.78;1822058;77;20966;-76
2021/01/01 08:39:11;;;;;;;35.80;22.98;;;;;;;5.11;69.06;100874.88;1822076;76;21006;-74
2021/01/01 08:41:45;;;;;;;30.72;19.42;;;;;;;5.10;68.80;100879.70;1822102;77;21029;-76
2021/01/01 08:44:13;;;;;;;32.67;19.45;;;;;;;4.97;68.96;100889.64;1822520;77;21005;-76
2021/01/01 08:46:41;;;;;;;33.48;21.07;;;;;;;4.88;69.35;100881.69;1822256;77;22147;-76
2021/01/01 08:49:18;;;;;;;31.50;21.10;;;;;;;4.79;69.64;100876.79;1821897;77;21014;-76
2021/01/01 08:51:49;;;;;;;34.67;22.93;;;;;;;4.69;70.05;100864.98;1822060;76;20927;-75
2021/01/01 08:54:26;;;;;;;38.23;25.70;;;;;;;4.60;70.57;100879.10;1817540;77;21010;-75
2021/01/01 08:57:00;;;;;;;34.90;24.02;;;;;;;4.53;70.88;100879.73;1822289;77;20935;-76
2021/01/01 08:59:29;;;;;;;40.95;24.50;;;;;;;4.50;71.19;100881.60;1822361;77;21202;-76
2021/01/01 09:01:59;;;;;;;35.60;22.85;;;;;;;4.42;71.44;100873.19;1853074;77;21033;-76
2021/01/01 09:04:29;;;;;;;34.73;22.37;;;;;;;4.40;71.81;100871.08;1822405;77;21477;-75
2021/01/01 09:07:06;;;;;;;29.98;21.27;;;;;;;4.39;72.06;100881.92;1822227;77;20950;-76
2021/01/01 09:09:34;;;;;;;27.75;19.73;;;;;;;4.40;72.27;100870.63;1822367;77;21488;-76
2021/01/01 09:12:20;;;;;;;30.20;20.32;;;;;;;4.42;72.42;100873.19;1822289;77;21169;-75
2021/01/01 09:14:55;;;;;;;;;;;;;;;4.41;72.59;100866.30;1825182;77;20966;-76
2021/01/01 09:17:26;;;;;;;36.88;23.10;;;;;;;4.36;72.85;100881.57;1822156;77;20110;-76
2021/01/01 09:20:08;;;;;;;35.08;23.90;;;;;;;4.36;72.91;100871.64;1822382;77;20954;-78
2021/01/01 09:22:38;;;;;;;35.65;25.50;;;;;;;4.38;73.11;100875.05;1822208;77;20930;-77
2021/01/01 09:25:23;;;;;;;34.30;24.02;;;;;;;4.39;73.10;100875.43;1822592;77;21089;-76
2021/01/01 09:27:52;;;;;;;;;;;;;;;4.41;73.16;100868.45;1824925;77;21061;-75
2021/01/01 09:30:22;;;;;;;30.95;19.05;;;;;;;4.41;73.15;100866.30;1822181;77;20240;-77
2021/01/01 09:32:51;;;;;;;34.13;22.65;;;;;;;4.39;73.37;100881.08;1822132;77;21148;-77
2021/01/01 09:35:19;;;;;;;30.82;21.73;;;;;;;4.36;73.52;100875.08;1822217;77;21037;-76
2021/01/01 09:38:04;;;;;;;33.08;22.22;;;;;;;4.30;73.91;100858.38;1822200;77;21158;-76
2021/01/01 09:40:34;;;;;;;29.15;20.70;;;;;;;4.24;74.15;100863.75;1822027;77;21052;-74
2021/01/01 09:43:06;;;;;;;35.95;23.77;;;;;;;4.23;74.38;100863.81;1822357;77;21013;-75
2021/01/01 09:45:35;;;;;;;38.40;24.70;;;;;;;4.21;74.48;100848.73;1822026;77;21022;-76
2021/01/01 09:48:04;;;;;;;35.45;24.70;;;;;;;4.22;74.61;100861.64;1822201;77;21067;-75
2021/01/01 09:50:32;;;;;;;39.50;24.72;;;;;;;4.27;74.67;100848.52;1818445;77;21642;-74
2021/01/01 09:53:01;;;;;;;62.73;37.65;;;;;;;4.29;74.68;100851.93;1816582;77;20958;-76
2021/01/01 09:55:31;;;;;;;36.88;23.07;;;;;;;4.30;74.96;100842.80;1816776;77;20946;-75
2021/01/01 09:57:59;;;;;;;39.67;25.32;;;;;;;4.31;74.99;100839.33;1816870;77;21611;-75
2021/01/01 10:00:29;;;;;;;41.98;25.30;;;;;;;4.32;75.03;100838.88;1811909;77;21029;-74
2021/01/01 10:02:57;;;;;;;38.55;24.92;;;;;;;4.34;75.18;100834.03;1816578;77;21155;-76
2021/01/01 10:05:25;;;;;;;40.83;26.37;;;;;;;4.36;75.24;100830.10;1816635;77;20946;-81
2021/01/01 10:07:53;;;;;;;46.80;30.25;;;;;;;4.35;75.25;100812.35;1816805;77;20934;-79
2021/01/01 10:10:23;;;;;;;38.45;25.05;;;;;;;4.41;75.33;100807.89;1816866;77;20998;-79
2021/01/01 10:12:52;;;;;;;46.40;27.90;;;;;;;4.51;75.28;100810.58;1816960;77;21088;-78
2021/01/01 10:15:20;;;;;;;46.50;26.90;;;;;;;4.61;75.14;100812.45;1817093;77;21616;-79
2021/01/01 10:17:48;;;;;;;39.00;26.35;;;;;;;4.72;74.92;100807.75;1817250;77;20977;-78
2021/01/01 10:20:16;;;;;;;39.83;27.37;;;;;;;4.83;74.77;100798.31;1817091;77;21472;-75
2021/01/01 10:22:46;;;;;;;38.92;24.52;;;;;;;4.93;74.61;100816.11;1817247;77;20954;-77
2021/01/01 10:25:14;;;;;;;43.83;27.05;;;;;;;5.03;74.18;100829.67;1817092;77;20929;-76
2021/01/01 10:27:42;;;;;;;39.42;24.60;;;;;;;5.07;73.99;100819.57;1816968;77;22137;-76
2021/01/01 10:30:11;;;;;;;35.83;22.58;;;;;;;5.14;73.77;100824.11;1816706;77;21037;-78
2021/01/01 10:32:40;;;;;;;35.28;22.35;;;;;;;5.18;73.61;100824.41;1816637;77;20994;-77
2021/01/01 10:35:09;;;;;;;43.58;25.23;;;;;;;5.20;73.44;100816.08;1816850;77;20970;-76
2021/01/01 10:37:36;;;;;;;44.08;27.82;;;;;;;5.17;73.49;100816.19;1816904;77;20943;-78
2021/01/01 10:40:07;;;;;;;39.67;25.02;;;;;;;5.18;73.65;100813.55;1816674;77;21160;-78
2021/01/01 10:42:34;;;;;;;39.42;25.68;;;;;;;5.25;73.52;100809.45;1816699;77;20951;-78
2021/01/01 10:45:02;;;;;;;36.80;24.57;;;;;;;5.27;73.31;100802.41;1816834;77;21014;-76
2021/01/01 10:47:30;;;;;;;38.08;25.10;;;;;;;5.23;73.34;100802.16;1816785;77;20978;-76
2021/01/01 10:49:58;;;;;;;38.00;24.12;;;;;;;5.19;73.54;100803.54;1814560;78;20942;-75
2021/01/01 10:52:27;;;;;;;35.50;23.87;;;;;;;5.19;73.75;100803.54;1813559;78;21163;-77
2021/01/01 10:54:55;;;;;;;39.50;25.65;;;;;;;5.22;73.81;100809.08;1813516;76;21108;-75
2021/01/01 10:57:22;;;;;;;37.65;24.23;;;;;;;5.24;73.81;100807.27;1813569;78;20993;-76
2021/01/01 10:59:50;;;;;;;43.23;27.10;;;;;;;5.31;73.87;100811.81;1813853;78;21454;-74
2021/01/01 11:02:18;;;;;;;42.43;25.10;;;;;;;5.37;73.61;100828.05;1813516;78;21162;-76
2021/01/01 11:04:47;;;;;;;36.23;23.38;;;;;;;5.35;73.65;100826.41;1813477;78;21166;-75
2021/01/01 11:07:15;;;;;;;41.40;24.95;;;;;;;5.34;73.77;100825.56;1813421;78;20962;-77
2021/01/01 11:09:43;;;;;;;40.05;23.85;;;;;;;5.36;73.77;100819.02;1813492;78;21452;-75
2021/01/01 11:12:10;;;;;;;33.83;23.02;;;;;;;5.34;73.90;100817.77;1813514;78;21037;-75
2021/01/01 12:21:54;;;;;;;40.48;23.62;;;;;;;5.12;77.24;100806.41;1822144;77;21013;-74
2021/01/01 12:26:42;;;;;;;46.68;25.40;;;;;;;5.08;77.23;100800.92;1822103;77;21086;-74
2021/01/01 12:29:11;;;;;;;41.15;24.05;;;;;;;5.05;77.26;100805.77;1822147;77;20965;-76
2021/01/01 12:31:39;;;;;;;38.95;24.10;;;;;;;5.05;77.41;100800.58;1822142;77;20903;-76
2021/01/01 12:34:07;;;;;;;42.48;24.15;;;;;;;5.08;77.55;100800.46;1822240;77;20926;-75
2021/01/01 12:36:35;;;;;;;40.30;24.67;;;;;;;5.11;77.67;100797.78;1822107;77;20934;-75
2021/01/01 12:39:03;;;;;;;38.65;22.32;;;;;;;5.13;77.62;100800.30;1821696;77;21072;-76
2021/01/01 12:41:31;;;;;;;40.23;24.75;;;;;;;5.15;77.50;100798.50;1822164;77;21014;-76